createdAt,value
2018-07-16T00:00:11.989Z,93773.08
2018-07-16T00:02:39.643Z,93767.11
2018-07-16T00:05:07.994Z,93765.24
2018-07-16T00:07:35.599Z,93769.77
2018-07-16T00:10:03.270Z,93772.42
2018-07-16T00:12:30.922Z,93762.47
2018-07-16T00:14:58.582Z,93765.91
2018-07-16T00:17:26.226Z,93765.09
2018-07-16T00:19:53.956Z,93754.05
2018-07-16T00:22:21.783Z,93756.41
2018-07-16T00:24:49.426Z,93752.26
2018-07-16T00:27:17.122Z,93755.06
2018-07-16T00:29:44.741Z,93751.59
2018-07-16T00:32:12.381Z,93750.45
2018-07-16T00:34:40.023Z,93756.41
2018-07-16T00:37:07.695Z,93744.09
2018-07-16T00:39:35.347Z,93746.11
2018-07-16T00:42:03.036Z,93748.82
2018-07-16T00:44:30.772Z,93745.66
2018-07-16T00:46:58.338Z,93751.22
2018-07-16T00:49:26.041Z,93749.03
2018-07-16T00:51:53.688Z,93744.55
2018-07-16T00:54:21.291Z,93746.23
2018-07-16T00:56:48.942Z,93737.92
2018-07-16T00:59:16.594Z,93744.27
2018-07-16T01:01:44.314Z,93733.15
2018-07-16T01:04:12.023Z,93739.40
2018-07-16T01:06:39.686Z,93730.55
2018-07-16T01:09:07.802Z,93734.02
2018-07-16T01:11:35.454Z,93735.21
2018-07-16T01:14:03.172Z,93731.36
2018-07-16T01:16:30.807Z,93733.65
2018-07-16T01:18:58.438Z,93736.82
2018-07-16T01:21:26.102Z,93736.90
2018-07-16T01:23:53.779Z,93734.38
2018-07-16T01:26:21.394Z,93729.83
2018-07-16T01:28:49.065Z,93732.39
2018-07-16T01:31:16.762Z,93730.61
2018-07-16T01:33:44.419Z,93732.77
2018-07-16T01:36:12.047Z,93733.28
2018-07-16T01:38:39.659Z,93738.75
2018-07-16T01:41:07.276Z,93739.61
2018-07-16T01:43:34.902Z,93739.32
2018-07-16T01:46:02.525Z,93744.63
2018-07-16T01:48:30.240Z,93749.57
2018-07-16T01:50:57.902Z,93751.55
2018-07-16T01:53:25.538Z,93752.45
2018-07-16T01:55:53.242Z,93753.93
2018-07-16T01:58:20.869Z,93756.58
2018-07-16T02:00:54.704Z,93759.73
2018-07-16T02:03:23.946Z,93763.80
2018-07-16T02:05:51.582Z,93766.08
2018-07-16T02:08:19.849Z,93767.45
2018-07-16T02:10:48.490Z,93773.00
2018-07-16T02:13:16.116Z,93772.42
2018-07-16T02:15:43.732Z,93772.39
2018-07-16T02:18:12.133Z,93770.17
2018-07-16T02:20:39.827Z,93782.28
2018-07-16T02:23:07.518Z,93771.45
2018-07-16T02:25:35.206Z,93774.86
2018-07-16T02:28:02.863Z,93772.03
2018-07-16T02:30:30.470Z,93778.07
2018-07-16T02:32:58.107Z,93782.14
2018-07-16T02:35:25.818Z,93784.47
2018-07-16T02:37:53.454Z,93783.44
2018-07-16T02:40:21.101Z,93781.73
2018-07-16T02:42:48.807Z,93780.45
2018-07-16T02:45:16.501Z,93779.33
2018-07-16T02:47:44.126Z,93778.46
2018-07-16T02:50:11.845Z,93781.70
2018-07-16T02:52:39.523Z,93781.59
2018-07-16T02:55:07.230Z,93778.75
2018-07-16T02:57:34.848Z,93779.14
2018-07-16T03:00:02.643Z,93779.23
2018-07-16T03:02:30.776Z,93777.42
2018-07-16T03:04:58.407Z,93776.67
2018-07-16T03:07:26.011Z,93771.85
2018-07-16T03:09:53.615Z,93776.91
2018-07-16T03:12:21.254Z,93776.19
2018-07-16T03:14:48.866Z,93774.77
2018-07-16T03:17:16.511Z,93779.52
2018-07-16T03:19:44.142Z,93770.70
2018-07-16T03:22:11.814Z,93769.30
2018-07-16T03:24:39.436Z,93772.20
2018-07-16T03:27:07.094Z,93772.98
2018-07-16T03:29:34.698Z,93774.64
2018-07-16T03:32:02.307Z,93773.25
2018-07-16T03:34:29.962Z,93765.87
2018-07-16T03:36:57.586Z,93766.91
2018-07-16T03:39:25.243Z,93770.47
2018-07-16T03:41:52.867Z,93771.80
2018-07-16T03:44:20.643Z,93767.75
2018-07-16T03:46:48.254Z,93770.66
2018-07-16T03:49:15.880Z,93773.83
2018-07-16T03:51:43.522Z,93776.48
2018-07-16T03:54:11.191Z,93777.52
2018-07-16T03:56:38.860Z,93778.91
2018-07-16T03:59:06.522Z,93778.91
2018-07-16T04:01:34.307Z,93787.09
2018-07-16T04:04:01.930Z,93787.09
2018-07-16T04:06:29.606Z,93784.47
2018-07-16T04:08:57.813Z,93791.91
2018-07-16T04:11:25.489Z,93788.80
2018-07-16T04:13:53.126Z,93791.72
2018-07-16T04:16:20.743Z,93795.41
2018-07-16T04:18:48.475Z,93792.20
2018-07-16T04:21:16.118Z,93791.63
2018-07-16T04:23:43.785Z,93787.36
2018-07-16T04:26:11.532Z,93788.87
2018-07-16T04:28:39.176Z,93785.89
2018-07-16T04:31:06.786Z,93780.05
2018-07-16T04:33:34.420Z,93779.01
2018-07-16T04:36:02.111Z,93782.21
2018-07-16T04:38:29.733Z,93769.54
2018-07-16T04:40:57.334Z,93775.23
2018-07-16T04:43:24.987Z,93770.96
2018-07-16T04:45:52.628Z,93766.34
2018-07-16T04:48:20.264Z,93774.46
2018-07-16T04:50:47.924Z,93777.15
2018-07-16T04:53:15.572Z,93776.80
2018-07-16T04:55:43.210Z,93780.19
2018-07-16T04:58:10.898Z,93774.64
2018-07-16T05:00:38.675Z,93781.80
2018-07-16T05:03:06.309Z,93776.17
2018-07-16T05:05:33.951Z,93776.20
2018-07-16T05:08:01.600Z,93776.42
2018-07-16T05:10:29.267Z,93780.87
2018-07-16T05:12:56.980Z,93782.45
2018-07-16T05:15:24.595Z,93792.84
2018-07-16T05:17:52.250Z,93792.84
2018-07-16T05:20:19.873Z,93791.80
2018-07-16T05:22:47.532Z,93795.20
2018-07-16T05:25:15.208Z,93788.14
2018-07-16T05:27:42.807Z,93784.19
2018-07-16T05:30:10.471Z,93787.08
2018-07-16T05:32:38.310Z,93781.87
2018-07-16T05:35:05.847Z,93774.93
2018-07-16T05:37:33.453Z,93777.47
2018-07-16T05:40:01.098Z,93775.28
2018-07-16T05:42:28.709Z,93778.83
2018-07-16T05:44:56.354Z,93773.37
2018-07-16T05:47:24.045Z,93771.33
2018-07-16T05:49:51.746Z,93774.41
2018-07-16T05:52:19.386Z,93780.45
2018-07-16T05:54:47.006Z,93772.77
2018-07-16T05:57:14.674Z,93770.44
2018-07-16T05:59:42.338Z,93762.48
2018-07-16T06:02:09.983Z,93762.77
2018-07-16T06:04:37.607Z,93757.91
2018-07-16T06:07:05.357Z,93754.97
2018-07-16T06:09:32.974Z,93750.45
2018-07-16T06:12:00.640Z,93754.35
2018-07-16T06:14:28.346Z,93752.55
2018-07-16T06:16:56.083Z,93750.30
2018-07-16T06:19:23.734Z,93749.35
2018-07-16T06:21:51.650Z,93757.94
2018-07-16T06:24:19.277Z,93757.48
2018-07-16T06:26:47.415Z,93752.14
2018-07-16T06:29:15.102Z,93747.86
2018-07-16T06:31:42.762Z,93751.62
2018-07-16T06:34:10.439Z,93744.14
2018-07-16T06:36:38.077Z,93745.73
2018-07-16T06:39:05.759Z,93741.45
2018-07-16T06:41:33.734Z,93740.84
2018-07-16T06:44:01.046Z,93743.34
2018-07-16T06:46:28.930Z,93743.10
2018-07-16T06:48:56.583Z,93739.42
2018-07-16T06:51:24.190Z,93743.56
2018-07-16T06:53:51.826Z,93738.41
2018-07-16T06:56:19.418Z,93744.42
2018-07-16T06:58:47.055Z,93747.52
2018-07-16T07:01:15.011Z,93748.47
2018-07-16T07:03:42.679Z,93737.45
2018-07-16T07:06:10.334Z,93736.63
2018-07-16T07:08:37.959Z,93737.44
2018-07-16T07:11:05.698Z,93731.45
2018-07-16T07:13:33.310Z,93724.50
2018-07-16T07:16:00.958Z,93716.91
2018-07-16T07:18:28.578Z,93723.42
2018-07-16T07:20:56.396Z,93716.20
2018-07-16T07:23:24.050Z,93712.00
2018-07-16T07:25:51.692Z,93719.45
2018-07-16T07:28:19.350Z,93710.66
2018-07-16T07:30:46.998Z,93715.84
2018-07-16T07:33:14.678Z,93716.92
2018-07-16T07:35:42.487Z,93717.20
2018-07-16T07:38:09.937Z,93712.04
2018-07-16T07:40:37.598Z,93712.70
2018-07-16T07:43:05.266Z,93705.05
2018-07-16T07:45:32.936Z,93705.83
2018-07-16T07:48:00.583Z,93706.20
2018-07-16T07:50:28.244Z,93703.25
2018-07-16T07:52:55.873Z,93702.45
2018-07-16T07:55:23.875Z,93701.48
2018-07-16T07:57:51.147Z,93691.46
2018-07-16T08:00:18.804Z,93695.56
2018-07-16T08:02:46.465Z,93691.72
2018-07-16T08:05:14.168Z,93685.31
2018-07-16T08:07:41.788Z,93683.00
2018-07-16T08:10:09.426Z,93673.97
2018-07-16T08:12:37.115Z,93664.94
2018-07-16T08:15:04.754Z,93672.37
2018-07-16T08:17:32.432Z,93671.48
2018-07-16T08:20:00.089Z,93665.18
2018-07-16T08:22:27.758Z,93662.98
2018-07-16T08:24:55.390Z,93660.96
2018-07-16T08:27:23.092Z,93670.62
2018-07-16T08:29:50.763Z,93671.94
2018-07-16T08:32:18.454Z,93663.59
2018-07-16T08:34:46.086Z,93668.94
2018-07-16T08:37:13.726Z,93671.62
2018-07-16T08:39:41.386Z,93670.27
2018-07-16T08:42:09.355Z,93671.55
2018-07-16T08:44:36.997Z,93673.52
2018-07-16T08:47:04.682Z,93672.98
2018-07-16T08:49:32.323Z,93672.59
2018-07-16T08:51:59.987Z,93669.42
2018-07-16T08:54:27.604Z,93672.49
2018-07-16T08:56:55.267Z,93669.42
2018-07-16T08:59:22.969Z,93673.09
2018-07-16T09:01:50.558Z,93669.96
2018-07-16T09:04:18.178Z,93667.93
2018-07-16T09:06:45.807Z,93671.36
2018-07-16T09:09:13.468Z,93667.94
2018-07-16T09:11:41.834Z,93668.69
2018-07-16T09:14:09.495Z,93670.06
2018-07-16T09:16:37.095Z,93672.73
2018-07-16T09:19:04.848Z,93673.56
2018-07-16T09:21:32.459Z,93677.77
2018-07-16T09:24:00.093Z,93674.37
2018-07-16T09:26:27.782Z,93669.13
2018-07-16T09:28:55.397Z,93679.18
2018-07-16T09:31:23.066Z,93681.87
2018-07-16T09:33:50.719Z,93677.75
2018-07-16T09:36:18.406Z,93669.13
2018-07-16T09:38:46.071Z,93667.80
2018-07-16T09:41:13.762Z,93662.41
2018-07-16T09:43:41.428Z,93663.12
2018-07-16T09:46:09.084Z,93661.09
2018-07-16T09:48:36.738Z,93655.03
2018-07-16T09:51:04.418Z,93657.57
2018-07-16T09:53:32.039Z,93659.08
2018-07-16T09:55:59.732Z,93659.48
2018-07-16T09:58:27.370Z,93662.25
2018-07-16T10:01:00.614Z,93659.11
2018-07-16T10:03:28.282Z,93658.67
2018-07-16T10:05:55.968Z,93657.70
2018-07-16T10:08:23.635Z,93659.75
2018-07-16T10:10:51.263Z,93658.53
2018-07-16T10:13:18.890Z,93651.67
2018-07-16T10:15:46.504Z,93649.77
2018-07-16T10:18:14.174Z,93641.04
2018-07-16T10:20:41.798Z,93636.75
2018-07-16T10:23:09.458Z,93645.97
2018-07-16T10:25:37.121Z,93645.42
2018-07-16T10:28:04.906Z,93645.71
2018-07-16T10:30:32.862Z,93645.42
2018-07-16T10:33:01.122Z,93633.89
2018-07-16T10:35:28.926Z,93634.16
2018-07-16T10:37:56.553Z,93627.95
2018-07-16T10:40:24.229Z,93624.78
2018-07-16T10:42:51.859Z,93621.03
2018-07-16T10:45:19.527Z,93630.83
2018-07-16T10:47:47.197Z,93619.47
2018-07-16T10:50:14.827Z,93615.44
2018-07-16T10:52:42.463Z,93620.11
2018-07-16T10:55:10.174Z,93621.37
2018-07-16T10:57:37.871Z,93612.58
2018-07-16T11:00:05.587Z,93613.37
2018-07-16T11:02:33.422Z,93615.58
2018-07-16T11:05:01.121Z,93608.47
2018-07-16T11:07:28.770Z,93612.66
2018-07-16T11:09:56.486Z,93616.70
2018-07-16T11:12:24.126Z,93608.41
2018-07-16T11:14:51.785Z,93602.58
2018-07-16T11:17:19.421Z,93600.70
2018-07-16T11:19:47.088Z,93596.84
2018-07-16T11:22:14.714Z,93597.64
2018-07-16T11:24:42.389Z,93601.73
2018-07-16T11:27:10.021Z,93604.56
2018-07-16T11:29:37.743Z,93603.54
2018-07-16T11:32:05.743Z,93601.39
2018-07-16T11:34:33.406Z,93595.75
2018-07-16T11:37:01.065Z,93597.91
2018-07-16T11:39:28.690Z,93589.17
2018-07-16T11:41:56.339Z,93585.23
2018-07-16T11:44:24.070Z,93587.23
2018-07-16T11:46:51.738Z,93577.80
2018-07-16T11:49:19.366Z,93581.33
2018-07-16T11:51:47.026Z,93574.78
2018-07-16T11:54:14.654Z,93578.80
2018-07-16T11:56:42.339Z,93566.25
2018-07-16T11:59:09.979Z,93564.30
2018-07-16T12:01:37.691Z,93569.09
2018-07-16T12:04:05.376Z,93569.17
2018-07-16T12:06:32.974Z,93565.38
2018-07-16T12:09:00.663Z,93561.47
2018-07-16T12:11:29.279Z,93565.72
2018-07-16T12:13:56.922Z,93567.31
2018-07-16T12:16:24.552Z,93568.35
2018-07-16T12:18:52.194Z,93572.02
2018-07-16T12:21:19.814Z,93560.47
2018-07-16T12:23:47.459Z,93565.57
2018-07-16T12:26:15.103Z,93558.25
2018-07-16T12:28:42.783Z,93550.44
2018-07-16T12:31:10.522Z,93546.53
2018-07-16T12:33:38.165Z,93544.03
2018-07-16T12:36:05.832Z,93552.34
2018-07-16T12:38:33.507Z,93552.95
2018-07-16T12:41:01.216Z,93550.70
2018-07-16T12:43:28.895Z,93554.02
2018-07-16T12:45:56.539Z,93541.16
2018-07-16T12:48:24.179Z,93539.59
2018-07-16T12:50:51.851Z,93545.87
2018-07-16T12:53:19.475Z,93541.89
2018-07-16T12:55:47.192Z,93538.59
2018-07-16T12:58:14.819Z,93536.82
2018-07-16T13:00:43.439Z,93534.73
2018-07-16T13:03:11.040Z,93531.27
2018-07-16T13:05:38.696Z,93522.41
2018-07-16T13:08:06.372Z,93520.34
2018-07-16T13:10:34.011Z,93517.09
2018-07-16T13:13:01.641Z,93518.72
2018-07-16T13:15:29.243Z,93514.73
2018-07-16T13:17:56.936Z,93514.08
2018-07-16T13:20:24.575Z,93511.23
2018-07-16T13:22:52.224Z,93510.36
2018-07-16T13:25:19.917Z,93506.80
2018-07-16T13:27:47.530Z,93508.77
2018-07-16T13:30:15.191Z,93506.84
2018-07-16T13:32:42.851Z,93509.34
2018-07-16T13:35:10.564Z,93501.09
2018-07-16T13:37:38.262Z,93502.02
2018-07-16T13:40:05.944Z,93502.50
2018-07-16T13:42:33.779Z,93495.82
2018-07-16T13:45:01.446Z,93495.05
2018-07-16T13:47:29.058Z,93489.74
2018-07-16T13:49:56.689Z,93482.66
2018-07-16T13:52:24.309Z,93493.14
2018-07-16T13:54:51.956Z,93487.09
2018-07-16T13:57:19.599Z,93492.39
2018-07-16T13:59:47.443Z,93494.53
2018-07-16T14:02:15.110Z,93491.90
2018-07-16T14:04:42.782Z,93482.67
2018-07-16T14:07:10.428Z,93480.44
2018-07-16T14:09:38.059Z,93483.03
2018-07-16T14:12:05.756Z,93488.22
2018-07-16T14:14:33.449Z,93493.36
2018-07-16T14:17:01.148Z,93486.28
2018-07-16T14:19:28.939Z,93480.64
2018-07-16T14:21:56.571Z,93486.17
2018-07-16T14:24:24.295Z,93490.14
2018-07-16T14:26:51.963Z,93485.87
2018-07-16T14:29:19.615Z,93485.95
2018-07-16T14:31:47.242Z,93485.52
2018-07-16T14:34:14.924Z,93480.88
2018-07-16T14:36:42.653Z,93477.21
2018-07-16T14:39:10.349Z,93470.91
2018-07-16T14:41:38.000Z,93475.11
2018-07-16T14:44:05.691Z,93471.20
2018-07-16T14:46:33.334Z,93471.83
2018-07-16T14:49:00.959Z,93472.52
2018-07-16T14:51:28.683Z,93474.30
2018-07-16T14:53:56.315Z,93474.28
2018-07-16T14:56:23.976Z,93464.73
2018-07-16T14:58:51.641Z,93476.30
2018-07-16T15:01:19.387Z,93468.63
2018-07-16T15:03:47.008Z,93471.26
2018-07-16T15:06:14.697Z,93472.63
2018-07-16T15:08:43.173Z,93468.78
2018-07-16T15:11:10.972Z,93460.49
2018-07-16T15:13:38.641Z,93467.98
2018-07-16T15:16:06.306Z,93467.06
2018-07-16T15:18:33.962Z,93461.95
2018-07-16T15:21:01.941Z,93465.86
2018-07-16T15:23:29.315Z,93466.56
2018-07-16T15:25:57.001Z,93465.25
2018-07-16T15:28:24.669Z,93465.66
2018-07-16T15:30:52.395Z,93462.88
2018-07-16T15:33:20.039Z,93463.28
2018-07-16T15:35:47.709Z,93460.19
2018-07-16T15:38:15.391Z,93452.57
2018-07-16T15:40:43.666Z,93448.35
2018-07-16T15:43:11.298Z,93451.41
2018-07-16T15:45:39.073Z,93461.97
2018-07-16T15:48:06.796Z,93449.78
2018-07-16T15:50:34.404Z,93444.78
2018-07-16T15:53:02.066Z,93446.48
2018-07-16T15:55:30.545Z,93456.30
2018-07-16T15:57:58.232Z,93456.32
2018-07-16T16:00:25.902Z,93460.94
2018-07-16T16:02:53.596Z,93461.50
2018-07-16T16:05:21.256Z,93446.81
2018-07-16T16:07:48.911Z,93447.41
2018-07-16T16:10:16.564Z,93444.73
2018-07-16T16:12:44.272Z,93451.01
2018-07-16T16:15:11.922Z,93444.48
2018-07-16T16:17:40.166Z,93442.19
2018-07-16T16:20:07.911Z,93446.30
2018-07-16T16:22:35.599Z,93447.47
2018-07-16T16:25:03.282Z,93447.55
2018-07-16T16:27:30.942Z,93437.33
2018-07-16T16:29:58.776Z,93433.96
2018-07-16T16:32:26.458Z,93431.14
2018-07-16T16:34:54.174Z,93430.36
2018-07-16T16:37:21.818Z,93426.50
2018-07-16T16:39:49.538Z,93428.19
2018-07-16T16:42:17.170Z,93428.20
2018-07-16T16:44:44.831Z,93430.87
2018-07-16T16:47:12.527Z,93431.08
2018-07-16T16:49:40.173Z,93436.20
2018-07-16T16:52:07.854Z,93434.16
2018-07-16T16:54:35.496Z,93438.11
2018-07-16T16:57:03.208Z,93436.53
2018-07-16T16:59:31.082Z,93446.23
2018-07-16T17:01:59.186Z,93449.48
2018-07-16T17:04:26.941Z,93449.31
2018-07-16T17:06:54.723Z,93442.39
2018-07-16T17:09:22.346Z,93450.52
2018-07-16T17:11:50.364Z,93458.61
2018-07-16T17:14:18.071Z,93447.84
2018-07-16T17:16:45.700Z,93455.37
2018-07-16T17:19:13.380Z,93457.05
2018-07-16T17:21:41.044Z,93454.48
2018-07-16T17:24:08.722Z,93464.72
2018-07-16T17:26:36.432Z,93470.16
2018-07-16T17:29:04.290Z,93459.61
2018-07-16T17:31:31.961Z,93464.34
2018-07-16T17:34:00.190Z,93468.73
2018-07-16T17:36:27.884Z,93468.23
2018-07-16T17:38:55.522Z,93462.75
2018-07-16T17:41:23.194Z,93468.93
2018-07-16T17:43:50.880Z,93467.65
2018-07-16T17:46:18.572Z,93465.33
2018-07-16T17:48:46.318Z,93468.23
2018-07-16T17:51:13.972Z,93474.13
2018-07-16T17:53:41.670Z,93476.81
2018-07-16T17:56:09.383Z,93470.16
2018-07-16T17:58:37.151Z,93484.09
2018-07-16T18:01:05.011Z,93476.08
2018-07-16T18:03:33.271Z,93473.92
2018-07-16T18:06:01.003Z,93476.08
2018-07-16T18:08:28.679Z,93474.04
2018-07-16T18:10:56.611Z,93485.25
2018-07-16T18:13:24.552Z,93492.59
2018-07-16T18:15:52.230Z,93489.54
2018-07-16T18:18:20.196Z,93484.77
2018-07-16T18:20:47.875Z,93481.94
2018-07-16T18:23:15.577Z,93483.41
2018-07-16T18:25:43.407Z,93485.59
2018-07-16T18:28:11.067Z,93488.81
2018-07-16T18:30:38.760Z,93490.27
2018-07-16T18:33:06.451Z,93498.34
2018-07-16T18:35:34.214Z,93500.81
2018-07-16T18:38:01.991Z,93498.64
2018-07-16T18:40:29.724Z,93502.91
2018-07-16T18:42:57.406Z,93506.98
2018-07-16T18:45:25.102Z,93500.02
2018-07-16T18:47:52.846Z,93503.89
2018-07-16T18:50:20.539Z,93507.87
2018-07-16T18:52:48.254Z,93511.66
2018-07-16T18:55:15.930Z,93517.55
2018-07-16T18:57:44.019Z,93523.55
2018-07-16T19:00:11.721Z,93536.16
2018-07-16T19:02:39.551Z,93534.25
2018-07-16T19:05:07.293Z,93538.34
2018-07-16T19:07:34.984Z,93539.20
2018-07-16T19:10:02.760Z,93546.19
2018-07-16T19:12:30.420Z,93544.58
2018-07-16T19:14:58.103Z,93548.06
2018-07-16T19:17:25.787Z,93552.87
2018-07-16T19:19:53.473Z,93544.88
2018-07-16T19:22:21.127Z,93549.72
2018-07-16T19:24:48.834Z,93552.07
2018-07-16T19:27:17.474Z,93560.17
2018-07-16T19:29:45.692Z,93559.39
2018-07-16T19:32:13.397Z,93566.63
2018-07-16T19:34:41.136Z,93566.65
2018-07-16T19:37:08.841Z,93571.19
2018-07-16T19:39:36.517Z,93576.27
2018-07-16T19:42:04.308Z,93574.65
2018-07-16T19:44:31.983Z,93584.84
2018-07-16T19:46:59.714Z,93584.31
2018-07-16T19:49:27.400Z,93587.53
2018-07-16T19:51:55.024Z,93594.99
2018-07-16T19:54:22.691Z,93587.21
2018-07-16T19:56:50.565Z,93598.23
2018-07-16T19:59:18.187Z,93591.58
2018-07-16T20:01:45.847Z,93597.72
2018-07-16T20:04:14.180Z,93601.19
2018-07-16T20:06:41.810Z,93596.09
2018-07-16T20:09:09.473Z,93600.39
2018-07-16T20:11:37.116Z,93599.05
2018-07-16T20:14:04.847Z,93599.82
2018-07-16T20:16:35.220Z,93606.23
2018-07-16T20:19:02.937Z,93605.97
2018-07-16T20:21:30.640Z,93615.83
2018-07-16T20:23:58.411Z,93621.97
2018-07-16T20:26:26.049Z,93622.16
2018-07-16T20:28:53.684Z,93623.22
2018-07-16T20:31:21.368Z,93625.86
2018-07-16T20:33:49.048Z,93624.75
2018-07-16T20:36:16.694Z,93632.73
2018-07-16T20:38:44.358Z,93631.30
2018-07-16T20:41:12.014Z,93633.73
2018-07-16T20:43:39.674Z,93632.58
2018-07-16T20:46:07.422Z,93634.21
2018-07-16T20:48:35.075Z,93634.19
2018-07-16T20:51:02.699Z,93639.70
2018-07-16T20:53:30.345Z,93639.28
2018-07-16T20:55:58.071Z,93645.59
2018-07-16T20:58:25.731Z,93642.66
2018-07-16T21:00:53.419Z,93648.23
2018-07-16T21:03:21.099Z,93646.06
2018-07-16T21:05:48.739Z,93649.95
2018-07-16T21:08:16.466Z,93650.72
2018-07-16T21:10:44.184Z,93651.17
2018-07-16T21:13:14.645Z,93646.97
2018-07-16T21:15:42.294Z,93646.93
2018-07-16T21:18:09.996Z,93647.53
2018-07-16T21:20:37.596Z,93649.27
2018-07-16T21:23:05.525Z,93648.50
2018-07-16T21:25:33.227Z,93646.30
2018-07-16T21:28:00.879Z,93648.38
2018-07-16T21:30:28.508Z,93648.47
2018-07-16T21:32:56.151Z,93652.86
2018-07-16T21:35:24.471Z,93658.08
2018-07-16T21:37:52.086Z,93654.64
2018-07-16T21:40:19.886Z,93649.89
2018-07-16T21:42:47.492Z,93653.59
2018-07-16T21:45:15.181Z,93660.02
2018-07-16T21:47:42.822Z,93653.93
2018-07-16T21:50:10.442Z,93666.77
2018-07-16T21:52:38.082Z,93660.73
2018-07-16T21:55:05.785Z,93661.11
2018-07-16T21:57:33.458Z,93660.34
2018-07-16T22:00:01.087Z,93661.52
2018-07-16T22:02:28.907Z,93659.48
2018-07-16T22:04:56.618Z,93665.11
2018-07-16T22:07:24.289Z,93657.78
2018-07-16T22:09:51.935Z,93666.21
2018-07-16T22:12:19.703Z,93666.09
2018-07-16T22:14:47.386Z,93666.49
2018-07-16T22:17:15.094Z,93674.20
2018-07-16T22:19:42.737Z,93670.84
2018-07-16T22:22:10.498Z,93663.41
2018-07-16T22:24:38.147Z,93670.27
2018-07-16T22:27:05.766Z,93670.16
2018-07-16T22:29:33.394Z,93669.80
2018-07-16T22:32:01.134Z,93674.39
2018-07-16T22:34:28.744Z,93685.66
2018-07-16T22:36:56.391Z,93684.31
2018-07-16T22:39:24.060Z,93685.42
2018-07-16T22:41:51.690Z,93680.63
2018-07-16T22:44:19.378Z,93681.29
2018-07-16T22:46:46.998Z,93686.81
2018-07-16T22:49:14.716Z,93689.09
2018-07-16T22:51:42.326Z,93691.78
2018-07-16T22:54:09.956Z,93689.48
2018-07-16T22:56:37.613Z,93690.73
2018-07-16T22:59:05.270Z,93692.08
2018-07-16T23:01:32.876Z,93692.27
2018-07-16T23:04:00.537Z,93701.65
2018-07-16T23:06:28.225Z,93701.65
2018-07-16T23:08:55.891Z,93709.03
2018-07-16T23:11:23.595Z,93714.59
2018-07-16T23:13:51.254Z,93715.31
2018-07-16T23:16:18.871Z,93711.05
2018-07-16T23:18:46.564Z,93715.31
2018-07-16T23:21:14.239Z,93718.52
2018-07-16T23:23:41.870Z,93722.78
2018-07-16T23:26:10.270Z,93721.16
2018-07-16T23:28:37.921Z,93727.55
2018-07-16T23:31:05.531Z,93727.85
2018-07-16T23:33:33.187Z,93730.16
2018-07-16T23:36:00.819Z,93728.94
2018-07-16T23:38:29.438Z,93734.69
2018-07-16T23:40:57.145Z,93735.45
2018-07-16T23:43:24.755Z,93730.73
2018-07-16T23:45:52.414Z,93722.77
2018-07-16T23:48:20.096Z,93715.85
2018-07-16T23:50:47.734Z,93723.41
2018-07-16T23:53:15.368Z,93726.71
2018-07-16T23:55:43.028Z,93727.30
2018-07-16T23:58:10.659Z,93735.53
